Lake Park, Georgia
Current Conditions -  °F | °C
As of 8:53 PM on Sunday 25 Jan 2015 (Local Time) from KVLD Reporting Station
Scattered Clouds Scattered Clouds  
Wind Chill: 51°   Ceiling: Unl
Heat Index: 51°   Visibility: 10mi
Dew Point: 44°   Wind: 5mph
Humidity: 77%   Direction: 190°S
Pressure: 29.9"   Gusts: NA
Location:  30.68°N, 83.18°W
Report Text: KVLD 260153Z AUTO 19004KT 10SM SCT038 11/07 A2990 RMK AO2 SLP134 T01060067 TSNO
Loading
Personal Weather Stations






























Interactive Weather Map New forecast layout! Learn more

10-Day Weather Forecast

Advertisements
Track Severe Weather on mobile